Time;durP1;ratioP1;P1;durP2;ratioP2;P2;SDS_P1;SDS_P2;PMS_P1;PMS_P2;Temp;Humidity;BMP_temperature;BMP_pressure;BME280_temperature;BME280_humidity;BME280_pressure;Samples;Min_cycle;Max_cycle;Signal;HPM_P1;HPM_P2
2022/08/21 00:02:22;;;;;;;10.38;3.80;;;;;;;15.39;69.27;99725.28;5029147;28;20145;-67
2022/08/21 00:04:50;;;;;;;8.43;4.30;;;;;;;15.32;69.33;99723.16;5041559;28;20059;-65
2022/08/21 00:07:17;;;;;;;10.30;3.92;;;;;;;15.28;69.74;99721.66;5048177;28;20056;-67
2022/08/21 00:09:44;;;;;;;9.55;4.10;;;;;;;15.21;69.83;99722.13;5049353;28;20099;-67
2022/08/21 00:12:12;;;;;;;8.05;3.53;;;;;;;15.13;70.13;99726.25;5048984;28;20041;-67
2022/08/21 00:14:39;;;;;;;12.15;4.40;;;;;;;15.08;70.32;99717.75;5048833;28;20053;-67
2022/08/21 00:17:06;;;;;;;7.75;3.53;;;;;;;15.02;70.55;99717.22;5048696;28;20143;-68
2022/08/21 00:19:34;;;;;;;12.35;4.10;;;;;;;14.95;71.08;99707.13;5049586;28;20053;-67
2022/08/21 00:22:00;;;;;;;7.13;3.65;;;;;;;14.92;71.10;99707.34;5049755;28;20590;-66
2022/08/21 00:24:28;;;;;;;7.82;4.55;;;;;;;14.90;71.16;99707.44;5049604;28;20049;-67
2022/08/21 00:26:54;;;;;;;6.05;3.28;;;;;;;14.89;71.46;99697.78;5048689;28;20052;-67
2022/08/21 00:29:22;;;;;;;7.75;3.50;;;;;;;14.88;71.63;99695.22;5051519;28;20053;-67
2022/08/21 00:31:49;;;;;;;11.10;3.40;;;;;;;14.84;71.70;99701.69;5049236;28;20045;-68
2022/08/21 00:34:15;;;;;;;4.80;3.15;;;;;;;14.80;71.48;99695.75;5049281;28;20070;-68
2022/08/21 00:36:42;;;;;;;8.73;3.90;;;;;;;14.80;71.89;99696.59;5048125;28;20067;-66
2022/08/21 00:39:09;;;;;;;7.38;3.38;;;;;;;14.84;71.16;99696.38;5049159;28;20053;-67
2022/08/21 00:41:38;;;;;;;8.48;3.95;;;;;;;14.89;70.94;99691.59;5048753;28;20128;-68
2022/08/21 00:44:05;;;;;;;11.25;4.10;;;;;;;14.92;71.12;99694.06;5050735;28;20041;-67
2022/08/21 00:46:33;;;;;;;6.00;3.03;;;;;;;14.93;70.83;99699.25;5052267;28;20059;-66
2022/08/21 00:49:00;;;;;;;8.10;3.40;;;;;;;14.95;70.40;99700.00;5053185;28;20415;-66
2022/08/21 00:51:33;;;;;;;5.75;3.60;;;;;;;14.98;70.46;99696.28;5055785;28;20496;-68
2022/08/21 00:54:02;;;;;;;6.35;3.22;;;;;;;15.00;70.38;99694.38;5059575;28;20051;-69
2022/08/21 00:56:29;;;;;;;5.75;2.90;;;;;;;14.99;70.53;99698.00;5055516;28;20059;-68
2022/08/21 00:58:58;;;;;;;5.68;3.70;;;;;;;14.94;70.25;99692.13;5056351;28;20121;-68
2022/08/21 01:01:25;;;;;;;5.50;3.30;;;;;;;14.80;70.89;99699.25;5053804;28;20277;-67
2022/08/21 01:03:53;;;;;;;10.63;4.65;;;;;;;14.78;71.09;99692.34;5053315;28;20655;-67
2022/08/21 01:06:20;;;;;;;11.45;4.70;;;;;;;14.80;71.12;99693.09;5051882;28;20628;-67
2022/08/21 01:08:47;;;;;;;8.25;3.85;;;;;;;14.81;71.09;99687.66;5052461;28;20063;-67
2022/08/21 01:11:15;;;;;;;12.35;4.28;;;;;;;14.81;70.81;99685.00;5052417;28;20041;-66
2022/08/21 01:13:45;;;;;;;7.00;4.05;;;;;;;14.76;71.39;99699.56;5059559;28;20060;-66
2022/08/21 01:16:13;;;;;;;8.70;4.35;;;;;;;14.68;71.63;99700.09;5059589;28;20056;-68
2022/08/21 01:18:39;;;;;;;10.43;4.25;;;;;;;14.63;72.20;99696.91;5052537;28;20057;-68
2022/08/21 01:21:10;;;;;;;8.75;4.07;;;;;;;14.58;72.78;99691.91;5052294;28;20045;-67
2022/08/21 01:23:38;;;;;;;8.13;4.32;;;;;;;14.59;71.96;99696.25;5052170;28;20045;-68
2022/08/21 01:26:06;;;;;;;9.05;4.28;;;;;;;14.62;71.97;99695.22;5051492;28;20045;-67
2022/08/21 01:28:39;;;;;;;9.10;3.65;;;;;;;14.60;71.91;99692.66;5051573;28;20053;-68
2022/08/21 01:31:08;;;;;;;8.65;4.10;;;;;;;14.57;71.98;99691.97;5052009;28;20047;-67
2022/08/21 01:33:34;;;;;;;10.07;4.00;;;;;;;14.56;72.00;99695.59;5051779;28;20051;-68
2022/08/21 01:36:01;;;;;;;8.15;4.47;;;;;;;14.53;72.05;99696.66;5051121;28;20045;-68
2022/08/21 01:38:29;;;;;;;6.35;3.25;;;;;;;14.52;72.11;99699.38;5051716;28;20051;-67
2022/08/21 01:40:56;;;;;;;7.63;4.05;;;;;;;14.49;72.13;99696.94;5043950;28;20049;-67
2022/08/21 01:43:23;;;;;;;6.57;3.92;;;;;;;14.47;72.01;99697.06;5051730;28;20048;-67
2022/08/21 01:45:49;;;;;;;6.28;3.83;;;;;;;14.45;72.21;99700.72;5051358;28;20049;-67
2022/08/21 01:48:16;;;;;;;6.50;4.00;;;;;;;14.41;72.42;99692.16;5051655;28;20064;-69
2022/08/21 01:50:43;;;;;;;5.88;3.65;;;;;;;14.37;72.79;99691.50;5051460;28;20056;-68
2022/08/21 01:53:09;;;;;;;10.38;4.38;;;;;;;14.37;72.96;99695.94;5051450;28;20147;-66
2022/08/21 01:55:37;;;;;;;6.43;4.13;;;;;;;14.39;72.61;99699.34;5051094;28;20053;-66
2022/08/21 01:58:04;;;;;;;9.98;4.45;;;;;;;14.29;73.43;99690.31;5050481;28;20058;-68
2022/08/21 02:00:30;;;;;;;9.85;4.95;;;;;;;14.21;74.25;99693.47;5051785;28;20492;-67
2022/08/21 02:02:57;;;;;;;8.40;4.30;;;;;;;14.21;74.10;99690.81;5051668;28;20047;-67
2022/08/21 02:05:23;;;;;;;9.80;4.85;;;;;;;14.23;74.07;99682.78;5051466;28;20063;-67
2022/08/21 02:07:52;;;;;;;7.28;4.00;;;;;;;14.17;73.72;99684.84;5050399;28;20053;-68
2022/08/21 02:10:24;;;;;;;9.82;4.30;;;;;;;14.16;74.40;99677.00;5051508;28;20055;-67
2022/08/21 02:12:51;;;;;;;6.65;3.65;;;;;;;14.17;73.75;99674.25;5051214;28;20053;-68
2022/08/21 02:15:19;;;;;;;5.85;3.50;;;;;;;14.19;73.82;99676.81;5051005;28;20504;-68
2022/08/21 02:17:49;;;;;;;7.82;3.88;;;;;;;14.18;74.00;99675.13;5050499;28;20127;-67
2022/08/21 02:20:18;;;;;;;9.05;3.75;;;;;;;14.21;74.14;99671.41;5051290;28;20139;-68
2022/08/21 02:22:45;;;;;;;7.82;3.63;;;;;;;14.24;74.17;99673.84;5052272;28;20045;-67
2022/08/21 02:25:12;;;;;;;6.82;3.42;;;;;;;14.25;73.79;99680.84;5051238;28;20057;-67
2022/08/21 02:27:41;;;;;;;4.80;3.13;;;;;;;14.26;74.14;99696.66;5050113;28;20548;-67
2022/08/21 02:30:11;;;;;;;10.07;3.80;;;;;;;14.31;73.92;99702.50;5050772;28;20059;-67
2022/08/21 02:32:38;;;;;;;5.78;3.58;;;;;;;14.24;74.27;99698.56;5050788;28;20045;-68
2022/08/21 02:35:05;;;;;;;5.00;3.30;;;;;;;14.26;74.31;99696.66;5050799;28;20048;-69
2022/08/21 02:37:32;;;;;;;8.57;3.65;;;;;;;14.24;74.78;99684.47;5050373;28;20143;-69
2022/08/21 02:40:00;;;;;;;5.75;3.38;;;;;;;14.20;74.40;99694.44;5051167;28;20045;-67
2022/08/21 02:42:26;;;;;;;9.30;4.18;;;;;;;14.12;75.16;99692.25;5050641;28;20486;-66
2022/08/21 02:44:53;;;;;;;10.70;4.18;;;;;;;14.06;75.05;99692.66;5050493;28;20056;-69
2022/08/21 02:47:21;;;;;;;8.18;3.33;;;;;;;14.06;75.55;99694.47;5050392;28;20049;-68
2022/08/21 02:49:47;;;;;;;7.20;3.28;;;;;;;14.11;75.07;99692.38;5053011;28;20045;-68
2022/08/21 02:52:14;;;;;;;7.82;3.78;;;;;;;14.13;74.77;99693.13;5052227;28;20053;-65
2022/08/21 02:54:41;;;;;;;8.52;4.43;;;;;;;14.11;74.92;99693.22;5053147;28;20056;-69
2022/08/21 02:57:07;;;;;;;7.18;3.63;;;;;;;14.13;74.84;99688.66;5054716;28;20052;-68
2022/08/21 02:59:34;;;;;;;8.23;3.25;;;;;;;14.16;75.11;99690.28;5032144;28;20416;-67
2022/08/21 03:02:01;;;;;;;11.18;3.67;;;;;;;14.20;74.66;99691.78;5033664;28;20484;-68
2022/08/21 03:04:29;;;;;;;6.10;3.70;;;;;;;14.23;74.69;99688.91;5033594;28;20056;-69
2022/08/21 03:06:55;;;;;;;6.93;3.35;;;;;;;14.27;74.62;99690.41;5030874;28;20066;-66
2022/08/21 03:09:22;;;;;;;7.25;3.42;;;;;;;14.28;74.30;99681.50;5030960;28;20055;-67
2022/08/21 03:11:48;;;;;;;9.73;4.07;;;;;;;14.28;74.24;99681.50;5030508;28;20064;-66
2022/08/21 03:14:15;;;;;;;6.15;3.35;;;;;;;14.28;74.24;99675.34;5030380;28;20049;-66
2022/08/21 03:16:41;;;;;;;7.93;3.95;;;;;;;14.30;73.90;99676.09;5047257;28;20052;-67
2022/08/21 03:19:08;;;;;;;5.90;3.08;;;;;;;14.28;74.22;99678.84;5050122;28;20052;-68
2022/08/21 03:21:36;;;;;;;10.30;3.70;;;;;;;14.26;74.14;99683.41;5050002;28;20049;-67
2022/08/21 03:24:04;;;;;;;5.93;3.70;;;;;;;14.25;73.58;99673.75;5050233;28;20530;-67
2022/08/21 03:26:30;;;;;;;6.18;3.90;;;;;;;14.25;73.65;99679.06;5048966;28;20044;-68
2022/08/21 03:28:57;;;;;;;5.88;3.35;;;;;;;14.22;73.56;99684.53;5049832;28;20071;-67
2022/08/21 03:31:26;;;;;;;9.80;3.97;;;;;;;14.21;74.00;99680.22;5049856;28;20076;-66
2022/08/21 03:33:54;;;;;;;10.20;3.83;;;;;;;14.18;74.34;99681.25;5041776;28;20053;-67
2022/08/21 03:36:21;;;;;;;8.02;3.92;;;;;;;14.23;73.66;99683.63;5049787;28;20048;-67
2022/08/21 03:38:49;;;;;;;9.63;3.38;;;;;;;14.26;73.46;99680.75;5053429;28;20055;-66
2022/08/21 03:41:15;;;;;;;7.28;3.53;;;;;;;14.24;73.83;99679.16;5051057;28;20049;-67
2022/08/21 03:43:42;;;;;;;5.03;3.25;;;;;;;14.27;73.46;99682.44;5050230;28;20051;-67
2022/08/21 03:46:09;;;;;;;5.13;3.15;;;;;;;14.25;73.67;99684.38;5049147;28;20045;-67
2022/08/21 03:48:38;;;;;;;8.73;4.15;;;;;;;14.24;73.47;99695.91;5049597;28;20135;-67
2022/08/21 03:51:06;;;;;;;9.48;3.50;;;;;;;14.29;73.63;99690.31;5049981;28;20516;-67
2022/08/21 03:53:33;;;;;;;10.85;3.55;;;;;;;14.31;73.25;99686.59;5049307;28;20534;-67
2022/08/21 03:56:01;;;;;;;5.10;3.10;;;;;;;14.32;73.54;99690.09;5049910;28;20064;-66
2022/08/21 03:58:29;;;;;;;14.57;4.00;;;;;;;14.32;73.33;99698.06;5053786;28;20112;-67
2022/08/21 04:00:58;;;;;;;6.45;3.55;;;;;;;14.33;72.95;99699.78;5056102;28;20124;-68
2022/08/21 04:03:27;;;;;;;10.75;3.70;;;;;;;14.35;72.75;99692.56;5049214;28;20048;-66
2022/08/21 04:05:53;;;;;;;7.30;4.38;;;;;;;14.36;72.79;99694.25;5048811;28;20431;-67
2022/08/21 04:08:20;;;;;;;12.18;4.30;;;;;;;14.37;72.72;99695.94;5048811;28;20056;-67
2022/08/21 04:10:50;;;;;;;5.57;3.22;;;;;;;14.38;72.42;99702.97;5049147;28;20102;-67
2022/08/21 04:13:19;;;;;;;10.43;3.50;;;;;;;14.39;72.99;99702.84;5049464;28;20459;-67
2022/08/21 04:15:45;;;;;;;8.52;4.65;;;;;;;14.39;72.36;99705.50;5048373;28;20057;-69
2022/08/21 04:18:12;;;;;;;8.27;4.47;;;;;;;14.37;72.52;99712.72;5048582;28;20052;-66
2022/08/21 04:20:40;;;;;;;5.78;3.65;;;;;;;14.44;72.65;99712.31;5048882;28;20056;-65
2022/08/21 04:23:07;;;;;;;10.88;3.53;;;;;;;14.47;72.08;99712.97;5049025;28;20511;-66
2022/08/21 04:25:35;;;;;;;5.25;3.20;;;;;;;14.50;71.91;99703.97;5049019;28;20049;-67
2022/08/21 04:28:02;;;;;;;10.30;4.53;;;;;;;14.50;71.84;99710.09;5050532;28;20566;-67
2022/08/21 04:30:31;;;;;;;7.07;3.30;;;;;;;14.54;71.45;99711.63;5049811;28;20048;-67
2022/08/21 04:32:59;;;;;;;9.32;4.18;;;;;;;14.52;71.83;99713.50;5049300;28;20159;-67
2022/08/21 04:35:28;;;;;;;8.43;3.53;;;;;;;14.52;71.87;99709.97;5049045;28;20049;-67
2022/08/21 04:37:55;;;;;;;8.55;4.00;;;;;;;14.52;71.93;99710.84;5048058;28;20131;-68
2022/08/21 04:40:24;;;;;;;10.85;3.90;;;;;;;14.54;71.78;99710.78;5049210;28;20068;-68
2022/08/21 04:42:53;;;;;;;10.07;3.55;;;;;;;14.55;71.64;99715.13;5048834;28;20103;-68
2022/08/21 04:45:23;;;;;;;13.43;4.30;;;;;;;14.60;71.48;99719.19;5048852;28;20055;-67
2022/08/21 04:47:52;;;;;;;11.07;4.38;;;;;;;14.61;71.36;99714.72;5048097;28;20063;-65
2022/08/21 04:50:19;;;;;;;5.82;3.40;;;;;;;14.63;71.31;99715.47;5048976;28;21037;-70
2022/08/21 04:52:46;;;;;;;10.48;3.28;;;;;;;14.65;71.29;99707.41;5048706;28;20480;-68
2022/08/21 04:55:13;;;;;;;11.70;3.90;;;;;;;14.67;71.40;99703.69;5048672;28;20079;-68
2022/08/21 04:57:41;;;;;;;13.32;4.10;;;;;;;14.66;71.10;99702.00;5050310;28;20423;-68
2022/08/21 05:00:10;;;;;;;7.10;3.47;;;;;;;14.70;70.88;99694.69;5048595;28;20144;-68
2022/08/21 05:02:37;;;;;;;11.63;4.20;;;;;;;14.69;71.06;99696.47;5048744;28;20133;-69
2022/08/21 05:05:07;;;;;;;10.25;3.90;;;;;;;14.77;70.81;99694.16;5049257;28;20142;-68
2022/08/21 05:07:35;;;;;;;12.90;3.72;;;;;;;14.82;69.91;99699.16;5048771;28;20060;-69
2022/08/21 05:10:02;;;;;;;10.77;3.42;;;;;;;14.89;69.98;99694.25;5048647;28;20143;-69
2022/08/21 05:12:28;;;;;;;8.55;4.00;;;;;;;14.94;69.47;99694.78;5048339;28;20053;-68
2022/08/21 05:14:55;;;;;;;6.68;3.53;;;;;;;14.98;69.53;99699.78;5048033;28;20055;-69
2022/08/21 05:17:22;;;;;;;6.38;3.15;;;;;;;15.04;69.22;99701.19;5047776;28;20059;-68
2022/08/21 05:19:49;;;;;;;7.93;3.78;;;;;;;15.10;69.11;99707.88;5048741;28;20511;-68
2022/08/21 05:22:21;;;;;;;12.90;3.90;;;;;;;15.15;68.87;99709.25;5048278;28;20518;-69
2022/08/21 05:24:48;;;;;;;13.73;4.57;;;;;;;15.19;69.05;99713.41;5048329;28;20140;-66
2022/08/21 05:27:15;;;;;;;6.82;3.22;;;;;;;15.25;68.45;99710.31;5047424;28;20045;-68
2022/08/21 05:29:41;;;;;;;13.63;3.00;;;;;;;15.30;68.30;99712.63;5049886;28;20152;-68
2022/08/21 05:32:10;;;;;;;7.53;3.00;;;;;;;15.36;67.95;99714.88;5051863;28;20056;-68
2022/08/21 05:34:37;;;;;;;9.20;3.40;;;;;;;15.40;67.72;99718.16;5051874;28;20045;-68
2022/08/21 05:37:03;;;;;;;5.90;2.80;;;;;;;15.46;67.69;99715.09;5051088;28;20053;-68
2022/08/21 05:39:32;;;;;;;7.07;3.03;;;;;;;15.48;67.61;99720.28;5051619;28;20055;-68
2022/08/21 05:41:58;;;;;;;6.50;3.75;;;;;;;15.51;67.53;99715.59;5051705;28;20049;-68
2022/08/21 05:44:25;;;;;;;9.80;3.47;;;;;;;15.60;67.58;99716.75;5051704;28;20040;-69
2022/08/21 05:46:52;;;;;;;6.65;2.92;;;;;;;15.64;67.50;99708.44;5050934;28;20052;-68
2022/08/21 05:49:18;;;;;;;10.15;4.22;;;;;;;15.73;67.00;99708.81;5051697;28;20136;-68
2022/08/21 05:51:45;;;;;;;9.30;3.17;;;;;;;15.78;66.91;99707.50;5051698;28;20133;-69
2022/08/21 05:54:11;;;;;;;7.63;2.97;;;;;;;15.84;66.67;99704.38;5051542;28;20049;-69
2022/08/21 05:56:39;;;;;;;6.10;3.80;;;;;;;15.95;66.78;99706.28;5050775;28;20138;-69
2022/08/21 05:59:07;;;;;;;6.97;3.25;;;;;;;16.03;66.15;99706.56;5051426;28;20518;-69
2022/08/21 06:01:33;;;;;;;8.07;3.00;;;;;;;16.10;66.24;99705.16;5051280;28;20492;-69
2022/08/21 06:04:00;;;;;;;9.57;3.35;;;;;;;16.17;66.11;99699.38;5051510;28;20510;-70
2022/08/21 06:06:26;;;;;;;7.70;2.80;;;;;;;16.26;65.78;99696.03;5050645;28;20105;-69
2022/08/21 06:08:53;;;;;;;10.35;3.25;;;;;;;16.35;65.38;99698.00;5051072;28;20515;-68
2022/08/21 06:11:20;;;;;;;9.25;2.78;;;;;;;16.47;65.77;99693.59;5051582;28;20525;-69
2022/08/21 06:13:48;;;;;;;7.68;2.63;;;;;;;16.56;65.20;99686.72;5051251;28;20048;-68
2022/08/21 06:16:17;;;;;;;6.80;2.75;;;;;;;16.66;64.69;99690.38;5049806;28;20135;-67
2022/08/21 06:18:44;;;;;;;9.48;3.45;;;;;;;16.75;64.50;99695.84;5050616;28;20053;-68
2022/08/21 06:21:11;;;;;;;7.07;2.63;;;;;;;16.82;64.45;99698.91;5050936;28;20500;-69
2022/08/21 06:23:39;;;;;;;7.95;3.00;;;;;;;16.93;64.25;99701.63;5058454;28;20052;-69
2022/08/21 06:26:07;;;;;;;8.20;2.58;;;;;;;17.02;63.61;99705.38;5053797;28;20052;-68
2022/08/21 06:28:35;;;;;;;9.48;4.18;;;;;;;17.14;63.93;99701.75;5050873;28;20114;-69
2022/08/21 06:31:11;;;;;;;6.18;2.47;;;;;;;17.26;62.96;99710.63;5051418;28;20072;-69
2022/08/21 06:33:38;;;;;;;6.07;2.60;;;;;;;17.32;63.16;99709.28;5051193;28;20063;-69
2022/08/21 06:36:05;;;;;;;8.60;3.30;;;;;;;17.42;62.61;99712.06;5049817;28;20071;-69
2022/08/21 06:38:31;;;;;;;8.68;3.33;;;;;;;17.52;62.50;99713.03;5050859;28;20057;-68
2022/08/21 06:40:58;;;;;;;9.00;2.50;;;;;;;17.60;61.93;99718.63;5053514;28;20045;-69
2022/08/21 06:43:24;;;;;;;6.20;2.63;;;;;;;17.68;61.50;99715.34;5057588;28;20045;-70
2022/08/21 06:45:51;;;;;;;6.28;2.30;;;;;;;17.76;61.32;99720.91;5053688;28;20049;-69
2022/08/21 06:48:19;;;;;;;7.18;3.45;;;;;;;17.86;60.89;99726.38;5050231;28;20530;-70
2022/08/21 06:50:46;;;;;;;7.22;2.95;;;;;;;17.98;60.14;99725.38;5050515;28;20088;-70
2022/08/21 06:53:15;;;;;;;7.93;3.28;;;;;;;18.20;59.46;99725.31;5051049;28;20619;-69
2022/08/21 06:55:42;;;;;;;8.05;2.90;;;;;;;18.23;58.66;99727.72;5050905;28;20175;-68
2022/08/21 06:58:10;;;;;;;9.32;3.03;;;;;;;18.25;58.49;99722.28;5050216;28;20049;-69
2022/08/21 07:00:40;;;;;;;18.10;3.88;;;;;;;18.34;58.73;99721.53;5051069;28;20055;-69
2022/08/21 07:03:06;;;;;;;7.88;2.60;;;;;;;18.42;58.27;99720.91;5050244;28;20053;-70
2022/08/21 07:05:34;;;;;;;5.47;2.53;;;;;;;18.50;58.23;99723.75;5052889;28;20141;-70
2022/08/21 07:08:01;;;;;;;7.43;3.08;;;;;;;18.57;57.88;99734.78;5069286;28;20049;-68
2022/08/21 07:10:28;;;;;;;3.92;2.47;;;;;;;18.55;57.46;99720.72;5070246;28;20511;-69
2022/08/21 07:12:55;;;;;;;5.90;2.15;;;;;;;18.60;57.70;99724.69;5070248;28;20053;-69
2022/08/21 07:15:22;;;;;;;7.22;2.70;;;;;;;18.67;57.58;99730.38;5063663;28;20049;-69
2022/08/21 07:17:49;;;;;;;8.30;2.50;;;;;;;18.68;57.31;99729.41;5049095;28;20059;-67
2022/08/21 07:20:15;;;;;;;7.45;2.35;;;;;;;18.77;57.42;99727.81;5049840;28;20492;-68
2022/08/21 07:22:44;;;;;;;5.80;2.53;;;;;;;18.80;56.83;99732.88;5050006;28;20059;-67
2022/08/21 07:25:11;;;;;;;3.85;1.98;;;;;;;18.91;56.96;99726.66;5050162;28;20049;-68
2022/08/21 07:27:37;;;;;;;7.70;2.78;;;;;;;18.97;55.93;99728.78;5049213;28;20049;-68
2022/08/21 07:30:05;;;;;;;5.97;2.53;;;;;;;19.06;56.00;99723.50;5049838;28;20135;-69
2022/08/21 07:32:32;;;;;;;4.65;2.13;;;;;;;19.09;55.90;99725.06;5049221;28;20084;-69
2022/08/21 07:34:59;;;;;;;4.53;2.17;;;;;;;19.19;55.95;99720.63;5049683;28;20049;-69
2022/08/21 07:37:25;;;;;;;5.22;2.40;;;;;;;19.34;55.53;99725.63;5049112;28;20239;-67
2022/08/21 07:39:53;;;;;;;7.53;2.80;;;;;;;19.49;55.18;99724.28;5050130;28;20045;-68
2022/08/21 07:42:20;;;;;;;9.88;2.53;;;;;;;19.59;54.93;99724.31;5052854;28;20053;-67
2022/08/21 07:44:46;;;;;;;5.53;2.35;;;;;;;19.70;54.44;99721.59;5053532;28;20051;-67
2022/08/21 07:47:13;;;;;;;6.35;2.45;;;;;;;19.86;54.05;99718.38;5052983;28;20048;-69
2022/08/21 07:49:39;;;;;;;5.03;2.55;;;;;;;20.04;53.77;99724.78;5053995;28;20052;-69
2022/08/21 07:52:06;;;;;;;5.03;2.13;;;;;;;20.22;51.79;99711.56;5052375;28;20079;-68
2022/08/21 07:54:34;;;;;;;6.07;2.28;;;;;;;20.32;51.72;99709.72;5050484;28;20098;-70
2022/08/21 07:57:02;;;;;;;10.20;1.95;;;;;;;20.52;50.41;99704.38;5049178;28;20084;-67
2022/08/21 07:59:28;;;;;;;4.25;2.22;;;;;;;20.77;49.97;99705.66;5049615;28;20052;-69
2022/08/21 08:01:55;;;;;;;5.22;2.10;;;;;;;20.84;49.41;99700.59;5049834;28;20060;-70
2022/08/21 08:04:22;;;;;;;5.05;2.00;;;;;;;20.89;49.55;99693.78;5050101;28;20435;-69
2022/08/21 08:06:49;;;;;;;5.05;2.60;;;;;;;21.07;50.43;99688.56;5048982;28;20131;-56
2022/08/21 08:09:16;;;;;;;9.00;2.30;;;;;;;21.19;50.06;99691.88;5049929;28;20055;-52
2022/08/21 08:11:44;;;;;;;6.95;2.38;;;;;;;21.40;49.40;99687.19;5048940;28;20149;-54
2022/08/21 08:14:12;;;;;;;6.05;2.03;;;;;;;21.76;48.83;99684.63;5049022;28;20068;-56
2022/08/21 08:16:38;;;;;;;4.85;2.65;;;;;;;22.04;48.30;99682.75;5047865;28;20055;-57
2022/08/21 08:19:05;;;;;;;5.65;2.55;;;;;;;22.20;48.21;99683.94;5049043;28;20052;-56
2022/08/21 08:21:33;;;;;;;11.95;3.30;;;;;;;22.41;50.19;99680.97;5049041;28;20619;-59
2022/08/21 08:24:00;;;;;;;9.65;3.72;;;;;;;22.51;49.51;99679.03;5049018;28;20041;-55
2022/08/21 08:26:26;;;;;;;10.48;2.88;;;;;;;22.58;48.99;99685.47;5048191;28;20148;-56
2022/08/21 08:28:53;;;;;;;7.57;3.22;;;;;;;22.67;49.68;99683.72;5048768;28;20048;-57
2022/08/21 08:31:21;;;;;;;12.32;3.95;;;;;;;22.70;50.01;99696.81;5048836;28;20045;-58
2022/08/21 08:33:48;;;;;;;6.80;2.88;;;;;;;22.66;48.07;99687.38;5051225;28;20473;-63
2022/08/21 08:36:17;;;;;;;8.70;2.97;;;;;;;22.60;47.92;99682.63;5048627;28;20065;-64
2022/08/21 08:38:44;;;;;;;4.50;2.33;;;;;;;22.58;48.30;99676.56;5047830;28;20052;-60
2022/08/21 08:41:13;;;;;;;6.38;3.30;;;;;;;22.67;48.27;99670.28;5048740;28;20053;-58
2022/08/21 08:43:43;;;;;;;6.57;2.38;;;;;;;22.67;47.07;99668.41;5050013;28;20135;-61
2022/08/21 08:46:15;;;;;;;7.93;2.88;;;;;;;22.71;47.70;99666.25;5049544;28;20057;-57
2022/08/21 08:48:51;;;;;;;23.35;8.13;;;;;;;22.81;47.30;99666.16;5052327;28;20102;-55
2022/08/21 08:51:22;;;;;;;10.45;4.95;;;;;;;22.92;46.14;99668.59;5050529;28;20482;-62
2022/08/21 08:53:53;;;;;;;11.40;4.55;;;;;;;23.01;46.60;99659.59;5049845;28;20071;-61
2022/08/21 08:56:27;;;;;;;7.53;2.78;;;;;;;23.15;46.01;99660.84;5049091;28;20053;-59
2022/08/21 08:58:56;;;;;;;7.43;3.03;;;;;;;23.09;45.36;99658.81;5049721;28;20067;-61
2022/08/21 09:01:23;;;;;;;9.77;4.03;;;;;;;23.10;45.21;99655.94;5050826;28;20568;-54
2022/08/21 09:03:51;;;;;;;6.70;2.42;;;;;;;23.02;46.02;99655.06;5050846;28;20508;-57
2022/08/21 09:06:35;;;;;;;16.00;5.68;;;;;;;23.38;45.73;99657.59;5052499;28;20488;-62
2022/08/21 09:09:19;;;;;;;15.05;5.00;;;;;;;23.67;45.02;99651.84;5053348;28;20095;-58
2022/08/21 09:11:53;;;;;;;22.75;7.18;;;;;;;23.88;44.39;99654.97;5053442;28;20045;-60
2022/08/21 09:14:33;;;;;;;14.55;3.78;;;;;;;24.05;43.84;99652.31;5053377;28;20056;-57
2022/08/21 09:17:11;;;;;;;9.23;3.15;;;;;;;24.11;43.10;99651.63;5047329;28;20045;-72
2022/08/21 09:19:55;;;;;;;7.75;2.88;;;;;;;23.96;43.27;99651.44;5052933;28;20045;-70
2022/08/21 09:22:36;;;;;;;6.57;1.75;;;;;;;23.95;43.45;99649.78;5053369;28;20053;-70
2022/08/21 09:25:11;;;;;;;6.50;2.65;;;;;;;24.19;42.94;99648.94;5053101;28;20041;-68
2022/08/21 09:27:39;;;;;;;8.05;2.65;;;;;;;24.49;42.01;99652.91;5052355;28;20168;-70
2022/08/21 09:30:09;;;;;;;10.48;3.30;;;;;;;25.19;41.02;99651.47;5056315;28;20048;-70
2022/08/21 09:32:41;;;;;;;8.05;2.42;;;;;;;26.10;39.11;99652.75;5056579;28;20126;-70
2022/08/21 09:35:12;;;;;;;9.15;3.95;;;;;;;26.80;37.22;99648.13;5052695;28;20160;-69
2022/08/21 09:37:50;;;;;;;5.65;2.72;;;;;;;27.44;35.74;99651.16;5051810;28;20574;-69
2022/08/21 09:40:21;;;;;;;8.20;2.70;;;;;;;27.87;35.03;99645.91;5052776;28;20246;-70
2022/08/21 09:42:56;;;;;;;7.15;2.78;;;;;;;28.31;34.71;99647.63;5052384;28;20092;-69
2022/08/21 09:45:22;;;;;;;7.35;2.75;;;;;;;28.66;34.09;99639.59;5052796;28;20140;-70
2022/08/21 09:47:49;;;;;;;6.05;2.72;;;;;;;28.83;33.23;99646.41;5051396;28;20140;-69
2022/08/21 09:50:19;;;;;;;8.60;3.30;;;;;;;29.19;32.61;99645.44;5052032;28;20051;-70
2022/08/21 09:52:50;;;;;;;8.02;2.72;;;;;;;29.18;32.42;99642.91;5052404;28;20690;-70
2022/08/21 09:58:02;;;;;;;7.00;2.85;;;;;;;28.71;32.42;99639.84;5017187;28;20045;-68
2022/08/21 10:00:32;;;;;;;5.90;2.85;;;;;;;28.66;32.80;99628.75;5051859;28;20053;-70
2022/08/21 10:03:18;;;;;;;11.25;4.05;;;;;;;28.20;34.49;99623.72;5050109;28;20457;-72
2022/08/21 10:05:56;;;;;;;8.77;2.55;;;;;;;28.37;34.32;99629.72;5051172;28;20075;-59
2022/08/21 10:08:24;;;;;;;6.78;2.40;;;;;;;28.79;33.63;99633.44;5050128;28;20053;-59
2022/08/21 10:10:54;;;;;;;8.48;3.17;;;;;;;28.89;32.92;99623.06;5051225;28;20059;-63
2022/08/21 10:13:25;;;;;;;6.93;2.50;;;;;;;29.22;32.73;99622.47;5051240;28;20047;-61
2022/08/21 10:16:00;;;;;;;8.77;3.10;;;;;;;29.10;31.99;99630.34;5050093;28;20040;-56
2022/08/21 10:18:35;;;;;;;7.18;2.83;;;;;;;29.16;32.16;99624.09;5051253;28;20064;-58
2022/08/21 10:21:11;;;;;;;6.05;2.63;;;;;;;29.46;32.12;99626.53;5051155;28;20060;-54
2022/08/21 10:23:48;;;;;;;6.03;2.78;;;;;;;29.77;31.02;99614.38;5050706;28;20053;-58
2022/08/21 10:26:28;;;;;;;8.20;2.95;;;;;;;29.86;31.26;99615.88;5050637;28;20044;-59
2022/08/21 10:29:02;;;;;;;5.10;2.65;;;;;;;29.91;31.07;99614.19;5050801;28;20049;-54
2022/08/21 10:31:44;;;;;;;7.45;2.22;;;;;;;29.83;30.81;99618.97;5051539;28;20463;-60
2022/08/21 10:34:24;;;;;;;8.25;3.33;;;;;;;29.50;30.93;99627.81;5048296;28;20045;-57
2022/08/21 10:37:07;;;;;;;5.13;2.25;;;;;;;29.72;30.41;99613.09;5042262;28;20407;-60
2022/08/21 10:39:35;;;;;;;6.20;2.58;;;;;;;29.77;29.80;99619.81;5051551;28;20057;-59
2022/08/21 10:42:21;;;;;;;7.18;2.28;;;;;;;29.48;30.39;99609.00;5051180;28;20056;-57
2022/08/21 10:44:58;;;;;;;15.13;2.63;;;;;;;29.59;30.68;99606.75;5036480;28;20056;-66
2022/08/21 10:47:33;;;;;;;6.85;2.45;;;;;;;29.62;30.67;99607.19;5051216;28;20049;-58
2022/08/21 10:50:10;;;;;;;9.00;3.25;;;;;;;29.64;31.63;99602.38;5052189;28;20059;-58
2022/08/21 10:52:55;;;;;;;7.22;2.78;;;;;;;29.47;31.64;99609.22;5052891;28;20045;-60
2022/08/21 10:55:26;;;;;;;9.18;3.63;;;;;;;29.09;31.97;99613.22;5052480;28;20051;-55
2022/08/21 10:57:58;;;;;;;9.98;2.65;;;;;;;28.63;32.36;99602.84;5051002;28;20047;-56
2022/08/21 11:00:30;;;;;;;7.85;2.95;;;;;;;28.19;33.00;99603.91;5050968;28;20051;-58
2022/08/21 11:03:04;;;;;;;10.25;2.80;;;;;;;28.08;33.23;99601.72;5042255;28;20465;-58
2022/08/21 11:05:34;;;;;;;10.75;3.05;;;;;;;27.77;33.37;99607.41;5050466;28;20048;-54
2022/08/21 11:08:08;;;;;;;11.30;2.60;;;;;;;27.20;34.75;99606.31;5049569;28;20051;-54
2022/08/21 11:10:42;;;;;;;9.85;3.13;;;;;;;26.91;35.58;99607.13;5050038;28;20044;-53
2022/08/21 11:13:14;;;;;;;7.00;3.65;;;;;;;26.97;35.54;99609.06;5049629;28;20044;-56
2022/08/21 11:15:49;;;;;;;5.25;3.08;;;;;;;26.67;36.19;99600.09;5049959;28;20132;-52
2022/08/21 11:18:25;;;;;;;7.63;2.90;;;;;;;26.74;35.67;99592.91;5051889;28;20053;-52
2022/08/21 11:21:03;;;;;;;6.13;3.47;;;;;;;26.55;35.71;99603.22;5035698;28;20080;-51
2022/08/21 11:23:40;;;;;;;10.55;3.08;;;;;;;26.52;35.26;99592.75;5049413;28;20049;-52
2022/08/21 11:26:12;;;;;;;5.80;2.88;;;;;;;26.46;35.78;99595.34;5049209;28;20048;-53
2022/08/21 11:28:45;;;;;;;4.65;2.20;;;;;;;26.53;35.01;99596.31;5032871;28;20057;-55
2022/08/21 11:31:27;;;;;;;7.20;2.90;;;;;;;26.52;35.23;99598.16;5049987;28;20049;-51
2022/08/21 11:34:05;;;;;;;4.70;2.47;;;;;;;26.41;34.77;99592.34;5049703;28;20049;-53
2022/08/21 11:36:39;;;;;;;5.03;2.38;;;;;;;26.10;35.01;99599.53;5048937;28;20049;-54
2022/08/21 11:39:20;;;;;;;10.93;3.33;;;;;;;25.95;35.25;99600.50;5049930;28;20049;-49
2022/08/21 11:41:55;;;;;;;4.25;2.05;;;;;;;26.07;35.02;99604.47;5050201;28;20077;-58
2022/08/21 11:44:37;;;;;;;7.70;2.60;;;;;;;26.20;34.67;99601.16;5050777;28;20071;-53